createdAt,value
2022-08-17T00:02:26.601Z,49.67
2022-08-17T00:04:55.354Z,49.36
2022-08-17T00:07:22.691Z,49.74
2022-08-17T00:09:49.548Z,49.51
2022-08-17T00:12:42.176Z,49.68
2022-08-17T00:15:09.179Z,49.57
2022-08-17T00:17:37.842Z,49.86
2022-08-17T00:20:05.776Z,50.01
2022-08-17T00:22:36.552Z,49.75
2022-08-17T00:25:15.100Z,49.73
2022-08-17T00:27:42.091Z,49.78
2022-08-17T00:30:11.582Z,49.83
2022-08-17T00:33:15.285Z,50.01
2022-08-17T00:35:32.338Z,50.13
2022-08-17T00:37:59.166Z,50.06
2022-08-17T00:40:26.207Z,50.28
2022-08-17T00:42:53.463Z,50.41
2022-08-17T00:45:20.937Z,50.53
2022-08-17T00:47:48.366Z,50.38
2022-08-17T00:50:18.923Z,50.67
2022-08-17T00:52:56.350Z,50.29
2022-08-17T00:55:25.745Z,50.25
2022-08-17T00:57:59.117Z,50.43
2022-08-17T01:00:32.961Z,50.50
2022-08-17T01:03:11.851Z,50.34
2022-08-17T01:05:42.197Z,50.66
2022-08-17T01:08:13.262Z,50.46
2022-08-17T01:11:00.582Z,50.26
2022-08-17T01:13:38.197Z,50.47
2022-08-17T01:16:22.000Z,50.52
2022-08-17T01:18:53.592Z,50.53
2022-08-17T01:22:04.984Z,50.95
2022-08-17T01:24:34.065Z,50.82
2022-08-17T01:27:01.519Z,50.88
2022-08-17T01:29:30.881Z,50.63
2022-08-17T01:32:05.437Z,50.58
2022-08-17T01:34:42.831Z,50.72
2022-08-17T01:37:15.094Z,50.88
2022-08-17T01:43:52.476Z,50.88
2022-08-17T01:46:27.946Z,51.17
2022-08-17T01:48:56.227Z,51.07
2022-08-17T01:51:25.930Z,51.18
2022-08-17T01:53:57.646Z,51.22
2022-08-17T01:56:26.085Z,51.09
2022-08-17T01:58:53.098Z,51.22
2022-08-17T02:01:26.400Z,51.38
2022-08-17T02:03:59.766Z,51.19
2022-08-17T02:10:35.051Z,51.74
2022-08-17T02:13:04.239Z,51.50
2022-08-17T02:15:31.901Z,51.41
2022-08-17T02:17:58.685Z,51.69
2022-08-17T02:20:41.809Z,51.60
2022-08-17T02:23:11.894Z,51.71
2022-08-17T02:25:40.436Z,51.88
2022-08-17T02:28:07.221Z,51.73
2022-08-17T02:30:59.829Z,51.90
2022-08-17T02:33:22.162Z,51.76
2022-08-17T02:35:49.014Z,51.91
2022-08-17T02:38:17.342Z,52.23
2022-08-17T02:40:44.136Z,52.03
2022-08-17T02:43:13.658Z,51.83
2022-08-17T02:45:40.479Z,51.65
2022-08-17T02:48:07.781Z,51.79
2022-08-17T02:50:34.646Z,52.09
2022-08-17T02:53:04.562Z,52.13
2022-08-17T02:55:36.310Z,51.83
2022-08-17T02:58:03.965Z,52.01
2022-08-17T03:00:35.784Z,52.19
2022-08-17T03:03:07.912Z,52.28
2022-08-17T03:05:37.502Z,52.11
2022-08-17T03:08:06.324Z,52.04
2022-08-17T03:10:33.848Z,52.18
2022-08-17T03:13:01.533Z,52.39
2022-08-17T03:15:31.969Z,52.16
2022-08-17T03:18:00.805Z,52.58
2022-08-17T03:20:30.473Z,52.30
2022-08-17T03:23:02.744Z,52.39
2022-08-17T03:25:41.174Z,52.35
2022-08-17T03:28:12.045Z,52.54
2022-08-17T03:30:40.413Z,52.50
2022-08-17T03:33:10.094Z,52.42
2022-08-17T03:35:40.220Z,52.34
2022-08-17T03:38:11.611Z,52.07
2022-08-17T03:40:57.256Z,51.99
2022-08-17T03:43:32.144Z,52.29
2022-08-17T03:46:28.980Z,52.36
2022-08-17T03:49:25.211Z,52.52
2022-08-17T03:52:12.301Z,52.35
2022-08-17T03:54:58.914Z,52.30
2022-08-17T03:57:26.148Z,52.61
2022-08-17T03:59:54.353Z,52.52
2022-08-17T04:02:28.983Z,52.56
2022-08-17T04:04:55.883Z,52.57
2022-08-17T04:07:27.338Z,52.56
2022-08-17T04:09:54.909Z,52.37
2022-08-17T04:12:23.875Z,52.67
2022-08-17T04:14:51.676Z,52.39
2022-08-17T04:17:20.037Z,52.60
2022-08-17T04:19:46.968Z,52.63
2022-08-17T04:22:30.042Z,52.80
2022-08-17T04:24:58.851Z,52.91
2022-08-17T04:27:25.724Z,52.72
2022-08-17T04:29:55.641Z,52.73
2022-08-17T04:33:09.820Z,52.87
2022-08-17T04:35:09.938Z,52.92
2022-08-17T04:37:36.787Z,52.99
2022-08-17T04:40:27.192Z,52.97
2022-08-17T04:43:07.293Z,53.10
2022-08-17T04:45:34.441Z,53.31
2022-08-17T04:48:01.682Z,53.01
2022-08-17T04:50:28.519Z,53.21
2022-08-17T04:52:55.598Z,53.38
2022-08-17T04:55:22.663Z,52.85
2022-08-17T04:57:49.470Z,53.43
2022-08-17T05:00:16.304Z,53.10
2022-08-17T05:02:50.986Z,53.41
2022-08-17T05:05:31.641Z,53.25
2022-08-17T05:08:02.166Z,53.41
2022-08-17T05:10:32.982Z,53.21
2022-08-17T05:13:17.610Z,53.01
2022-08-17T05:15:47.712Z,53.14
2022-08-17T05:18:16.508Z,52.70
2022-08-17T05:20:45.062Z,52.99
2022-08-17T05:23:16.661Z,52.32
2022-08-17T05:25:47.986Z,52.44
2022-08-17T05:28:18.507Z,52.17
2022-08-17T05:30:49.355Z,51.72
2022-08-17T05:33:23.690Z,51.33
2022-08-17T05:35:54.681Z,51.58
2022-08-17T05:38:24.242Z,51.19
2022-08-17T05:40:52.062Z,50.94
2022-08-17T05:43:26.070Z,51.01
2022-08-17T05:46:25.184Z,51.26
2022-08-17T05:48:57.665Z,51.25
2022-08-17T05:52:09.720Z,50.78
2022-08-17T05:55:07.181Z,50.51
2022-08-17T05:58:04.895Z,50.71
2022-08-17T06:00:57.847Z,50.14
2022-08-17T06:03:37.220Z,50.15
2022-08-17T06:06:32.160Z,49.77
2022-08-17T06:09:40.942Z,49.95
2022-08-17T06:12:42.743Z,50.11
2022-08-17T06:15:55.358Z,49.16
2022-08-17T06:18:26.752Z,49.33
2022-08-17T06:21:02.057Z,48.86
2022-08-17T06:23:39.573Z,48.75
2022-08-17T06:26:14.810Z,48.97
2022-08-17T06:28:54.753Z,48.51
2022-08-17T06:31:28.996Z,48.79
2022-08-17T06:33:58.190Z,48.89
2022-08-17T06:37:09.027Z,49.10
2022-08-17T06:40:07.164Z,48.42
2022-08-17T06:43:27.474Z,48.50
2022-08-17T06:46:07.712Z,47.18
2022-08-17T06:48:46.758Z,46.65
2022-08-17T06:51:25.858Z,46.53
2022-08-17T06:54:05.480Z,45.88
2022-08-17T06:56:53.089Z,45.56
2022-08-17T06:59:53.210Z,45.47
2022-08-17T07:03:02.097Z,45.44
2022-08-17T07:05:45.566Z,45.06
2022-08-17T07:08:27.743Z,44.16
2022-08-17T07:11:03.002Z,44.14
2022-08-17T07:14:01.152Z,42.50
2022-08-17T07:16:42.462Z,42.26
2022-08-17T07:19:10.978Z,41.96
2022-08-17T07:21:54.875Z,42.04
2022-08-17T07:24:51.780Z,42.42
2022-08-17T07:27:21.662Z,41.94
2022-08-17T07:30:16.332Z,41.64
2022-08-17T07:33:00.344Z,41.69
2022-08-17T07:35:31.336Z,41.34
2022-08-17T07:38:27.645Z,41.33
2022-08-17T07:40:57.776Z,40.83
2022-08-17T07:43:41.275Z,40.22
2022-08-17T07:46:39.882Z,40.93
2022-08-17T07:49:09.659Z,41.11
2022-08-17T07:52:00.507Z,41.45
2022-08-17T07:54:48.237Z,40.47
2022-08-17T07:57:14.890Z,40.85
2022-08-17T07:59:59.968Z,40.82
2022-08-17T08:02:41.413Z,40.29
2022-08-17T08:05:49.216Z,41.26
2022-08-17T08:08:25.148Z,40.59
2022-08-17T08:11:17.853Z,41.10
2022-08-17T08:13:45.699Z,41.53
2022-08-17T08:16:29.630Z,40.93
2022-08-17T08:19:00.605Z,41.32
2022-08-17T08:21:47.095Z,41.68
2022-08-17T08:24:32.301Z,41.73
2022-08-17T08:27:41.604Z,42.42
2022-08-17T08:30:21.276Z,42.74
2022-08-17T08:33:20.107Z,42.68
2022-08-17T08:35:58.673Z,42.92
2022-08-17T08:38:43.076Z,42.17
2022-08-17T08:41:42.955Z,42.38
2022-08-17T08:45:00.951Z,42.31
2022-08-17T08:47:53.490Z,42.78
2022-08-17T08:50:37.666Z,42.61
2022-08-17T08:53:43.746Z,41.99
2022-08-17T08:56:27.464Z,44.18
2022-08-17T08:59:33.102Z,42.84
2022-08-17T09:02:46.018Z,42.82
2022-08-17T09:05:44.574Z,41.81
2022-08-17T09:08:43.596Z,41.72
2022-08-17T09:12:02.283Z,41.61
2022-08-17T09:14:46.715Z,41.09
2022-08-17T09:17:46.060Z,40.68
2022-08-17T09:20:46.637Z,40.16
2022-08-17T09:23:32.655Z,40.24
2022-08-17T09:26:10.627Z,39.72
2022-08-17T09:28:42.572Z,38.83
2022-08-17T09:31:16.887Z,39.08
2022-08-17T09:33:49.035Z,38.47
2022-08-17T09:36:45.363Z,38.97
2022-08-17T09:39:39.184Z,38.17
2022-08-17T09:42:26.471Z,38.33
2022-08-17T09:45:42.541Z,37.70
2022-08-17T09:48:21.933Z,37.18
2022-08-17T09:51:07.074Z,36.99
2022-08-17T09:53:37.181Z,36.71
2022-08-17T09:56:34.590Z,37.13
2022-08-17T09:59:20.676Z,37.36
2022-08-17T10:02:29.772Z,37.90
2022-08-17T10:05:04.125Z,37.38
2022-08-17T10:07:55.964Z,36.56
2022-08-17T10:10:35.897Z,36.63
2022-08-17T10:13:47.208Z,36.14
2022-08-17T10:16:41.116Z,36.02
2022-08-17T10:19:28.373Z,36.04
2022-08-17T10:22:34.665Z,35.59
2022-08-17T10:25:37.582Z,35.61
2022-08-17T10:28:21.466Z,36.33
2022-08-17T10:31:10.413Z,35.68
2022-08-17T10:34:07.362Z,35.81
2022-08-17T10:37:08.712Z,35.42
2022-08-17T10:40:07.559Z,35.51
2022-08-17T10:42:47.003Z,35.77
2022-08-17T10:45:31.708Z,35.03
2022-08-17T10:48:07.953Z,35.11
2022-08-17T10:51:10.531Z,35.70
2022-08-17T10:53:40.613Z,34.95
2022-08-17T10:56:13.649Z,34.74
2022-08-17T10:58:54.840Z,34.38
2022-08-17T11:02:03.201Z,35.10
2022-08-17T11:05:00.911Z,34.48
2022-08-17T11:08:05.210Z,34.76
2022-08-17T11:11:10.029Z,34.77
2022-08-17T11:13:55.968Z,33.68
2022-08-17T11:17:04.175Z,34.27
2022-08-17T11:20:04.469Z,34.51
2022-08-17T11:22:49.916Z,34.19
2022-08-17T11:25:20.943Z,33.77
2022-08-17T11:27:53.761Z,33.23
2022-08-17T11:30:50.490Z,33.28
2022-08-17T11:33:29.561Z,33.32
2022-08-17T11:36:14.425Z,32.71
2022-08-17T11:39:05.638Z,33.87
2022-08-17T11:41:57.797Z,33.39
2022-08-17T11:44:57.027Z,33.45
2022-08-17T11:48:27.044Z,32.89
2022-08-17T11:51:33.461Z,32.89
2022-08-17T11:54:32.118Z,33.25
2022-08-17T11:57:02.321Z,33.00
2022-08-17T11:59:36.311Z,32.55
2022-08-17T12:02:34.630Z,32.50
2022-08-17T12:05:16.852Z,32.46
2022-08-17T12:07:51.898Z,32.54
2022-08-17T12:10:23.616Z,32.28
2022-08-17T12:12:53.505Z,32.67
2022-08-17T12:15:31.009Z,32.52
2022-08-17T12:17:58.399Z,31.96
2022-08-17T12:20:40.326Z,32.53
2022-08-17T12:23:28.401Z,32.40
2022-08-17T12:25:59.634Z,31.77
2022-08-17T12:28:34.386Z,32.00
2022-08-17T12:31:19.603Z,31.71
2022-08-17T12:33:49.756Z,31.13
2022-08-17T12:36:21.962Z,31.08
2022-08-17T12:39:13.878Z,30.70
2022-08-17T12:41:56.309Z,30.71
2022-08-17T12:44:36.332Z,30.54
2022-08-17T12:47:21.811Z,30.26
2022-08-17T12:49:53.052Z,31.00
2022-08-17T12:52:19.744Z,31.30
2022-08-17T12:55:01.834Z,31.46
2022-08-17T12:57:41.696Z,31.56
2022-08-17T13:00:17.453Z,31.51
2022-08-17T13:03:03.207Z,31.79
2022-08-17T13:05:43.549Z,31.45
2022-08-17T13:08:19.761Z,31.66
2022-08-17T13:11:03.467Z,31.49
2022-08-17T13:13:39.861Z,30.48
2022-08-17T13:16:20.452Z,30.06
2022-08-17T13:19:04.329Z,29.89
2022-08-17T13:21:33.181Z,30.17
2022-08-17T13:24:13.642Z,30.21
2022-08-17T13:27:00.802Z,30.26
2022-08-17T13:29:45.078Z,30.36
2022-08-17T13:32:44.148Z,30.35
2022-08-17T13:35:39.903Z,30.52
2022-08-17T13:38:15.070Z,30.03
2022-08-17T13:40:45.424Z,29.78
2022-08-17T13:43:12.436Z,29.20
2022-08-17T13:45:50.276Z,29.48
2022-08-17T13:48:28.433Z,29.71
2022-08-17T13:50:55.076Z,29.93
2022-08-17T13:53:51.121Z,30.05
2022-08-17T13:56:47.687Z,29.62
2022-08-17T13:59:53.856Z,30.04
2022-08-17T14:02:14.453Z,29.73
2022-08-17T14:04:43.992Z,29.71
2022-08-17T14:07:11.441Z,29.97
2022-08-17T14:09:51.210Z,29.06
2022-08-17T14:12:24.891Z,29.19
2022-08-17T14:14:54.864Z,28.63
2022-08-17T14:17:23.161Z,29.36
2022-08-17T14:19:51.124Z,28.99
2022-08-17T14:22:31.841Z,28.89
2022-08-17T14:25:01.648Z,28.93
2022-08-17T14:27:31.781Z,28.49
2022-08-17T14:29:58.594Z,28.51
2022-08-17T14:32:29.960Z,28.58
2022-08-17T14:34:58.094Z,28.19
2022-08-17T14:37:27.855Z,28.80
2022-08-17T14:39:59.986Z,28.83
2022-08-17T14:42:30.805Z,28.36
2022-08-17T14:45:06.042Z,28.32
2022-08-17T14:47:34.576Z,28.59
2022-08-17T14:50:02.110Z,28.08
2022-08-17T14:52:29.326Z,28.57
2022-08-17T14:54:56.880Z,28.36
2022-08-17T14:57:33.297Z,28.03
2022-08-17T15:00:02.029Z,28.80
2022-08-17T15:02:30.700Z,28.74
2022-08-17T15:05:06.083Z,28.71
2022-08-17T15:07:32.935Z,29.06
2022-08-17T15:10:01.398Z,29.42
2022-08-17T15:12:33.386Z,29.31
2022-08-17T15:15:04.917Z,29.49
2022-08-17T15:17:44.239Z,29.83
2022-08-17T15:20:17.695Z,30.60
2022-08-17T15:22:46.924Z,30.55
2022-08-17T15:25:14.430Z,30.96
2022-08-17T15:27:41.983Z,31.99
2022-08-17T15:30:10.109Z,32.19
2022-08-17T15:32:39.629Z,32.23
2022-08-17T15:35:08.808Z,32.96
2022-08-17T15:37:36.312Z,32.88
2022-08-17T15:40:05.270Z,32.62
2022-08-17T15:42:32.886Z,32.90
2022-08-17T15:45:10.867Z,33.77
2022-08-17T15:47:38.038Z,33.44
2022-08-17T15:50:07.812Z,33.53
2022-08-17T15:52:39.968Z,34.51
2022-08-17T15:55:13.870Z,35.10
2022-08-17T15:57:41.142Z,34.90
2022-08-17T16:00:09.578Z,35.24
2022-08-17T16:03:46.438Z,35.19
2022-08-17T16:05:27.142Z,35.59
2022-08-17T16:07:55.795Z,35.15
2022-08-17T16:10:23.506Z,34.90
2022-08-17T16:13:02.462Z,34.72
2022-08-17T16:15:31.140Z,35.01
2022-08-17T16:17:57.951Z,34.83
2022-08-17T16:20:26.037Z,34.20
2022-08-17T16:22:54.265Z,34.90
2022-08-17T16:25:50.423Z,35.10
2022-08-17T16:28:16.630Z,34.82
2022-08-17T16:30:43.557Z,35.22
2022-08-17T16:33:11.542Z,35.62
2022-08-17T16:35:38.570Z,36.17
2022-08-17T16:38:05.441Z,35.91
2022-08-17T16:40:36.019Z,36.56
2022-08-17T16:43:04.307Z,36.20
2022-08-17T16:45:36.288Z,36.70
2022-08-17T16:48:03.604Z,36.59
2022-08-17T16:50:31.818Z,36.59
2022-08-17T16:53:17.023Z,37.03
2022-08-17T16:55:45.821Z,37.07
2022-08-17T16:58:13.036Z,37.22
2022-08-17T17:00:42.281Z,37.46
2022-08-17T17:03:20.409Z,37.03
2022-08-17T17:06:18.746Z,37.19
2022-08-17T17:08:57.907Z,37.39
2022-08-17T17:11:33.495Z,37.42
2022-08-17T17:14:06.442Z,37.20
2022-08-17T17:16:52.818Z,37.79
2022-08-17T17:19:27.747Z,37.73
2022-08-17T17:22:15.588Z,37.68
2022-08-17T17:24:51.916Z,37.19
2022-08-17T17:27:40.575Z,37.51
2022-08-17T17:30:14.429Z,37.43
2022-08-17T17:32:51.404Z,37.38
2022-08-17T17:35:35.968Z,37.85
2022-08-17T17:38:07.944Z,38.85
2022-08-17T17:40:45.782Z,37.90
2022-08-17T17:43:37.669Z,37.90
2022-08-17T17:46:29.243Z,37.92
2022-08-17T17:49:00.345Z,37.83
2022-08-17T17:52:07.777Z,37.62
2022-08-17T17:54:51.058Z,37.82
2022-08-17T17:57:28.662Z,37.76
2022-08-17T18:00:26.428Z,37.95
2022-08-17T18:03:42.434Z,38.21
2022-08-17T18:06:27.036Z,37.89
2022-08-17T18:09:21.632Z,38.04
2022-08-17T18:12:05.362Z,38.11
2022-08-17T18:15:21.558Z,38.84
2022-08-17T18:18:22.714Z,38.64
2022-08-17T18:20:56.287Z,38.28
2022-08-17T18:23:28.018Z,38.82
2022-08-17T18:25:57.152Z,39.11
2022-08-17T18:28:30.826Z,38.94
2022-08-17T18:31:18.897Z,39.24
2022-08-17T18:33:53.290Z,39.05
2022-08-17T18:36:31.620Z,39.45
2022-08-17T18:39:23.592Z,39.46
2022-08-17T18:41:54.513Z,39.49
2022-08-17T18:44:35.739Z,39.48
2022-08-17T18:47:23.178Z,39.37
2022-08-17T18:49:58.159Z,39.56
2022-08-17T18:52:34.348Z,39.85
2022-08-17T18:55:12.740Z,39.74
2022-08-17T18:57:52.462Z,39.98
2022-08-17T19:00:42.907Z,40.03
2022-08-17T19:03:15.797Z,40.13
2022-08-17T19:05:55.158Z,40.27
2022-08-17T19:08:29.424Z,40.16
2022-08-17T19:10:59.976Z,41.04
2022-08-17T19:13:55.337Z,40.86
2022-08-17T19:16:38.004Z,40.71
2022-08-17T19:19:22.100Z,40.82
2022-08-17T19:22:08.106Z,40.94
2022-08-17T19:24:35.548Z,40.99
2022-08-17T19:27:21.671Z,41.20
2022-08-17T19:30:08.505Z,41.22
2022-08-17T19:32:36.045Z,41.24
2022-08-17T19:35:05.009Z,41.28
2022-08-17T19:38:12.994Z,41.73
2022-08-17T19:41:09.663Z,41.63
2022-08-17T19:44:00.774Z,41.88
2022-08-17T19:46:50.441Z,41.89
2022-08-17T19:49:49.645Z,42.27
2022-08-17T19:52:29.080Z,42.50
2022-08-17T19:55:07.120Z,42.55
2022-08-17T19:58:20.360Z,42.81
2022-08-17T20:00:51.411Z,43.20
2022-08-17T20:03:34.030Z,43.18
2022-08-17T20:06:13.798Z,43.15
2022-08-17T20:09:03.940Z,43.29
2022-08-17T20:11:46.939Z,44.03
2022-08-17T20:14:19.683Z,43.90
2022-08-17T20:16:46.922Z,44.27
2022-08-17T20:19:51.969Z,44.37
2022-08-17T20:22:53.064Z,44.38
2022-08-17T20:25:46.002Z,44.49
2022-08-17T20:28:28.691Z,44.66
2022-08-17T20:30:59.255Z,45.11
2022-08-17T20:33:35.221Z,44.75
2022-08-17T20:36:11.207Z,45.36
2022-08-17T20:38:55.467Z,44.94
2022-08-17T20:41:28.958Z,45.23
2022-08-17T20:43:58.862Z,45.47
2022-08-17T20:46:37.861Z,45.63
2022-08-17T20:49:39.148Z,45.68
2022-08-17T20:52:13.333Z,45.71
2022-08-17T20:54:54.492Z,46.01
2022-08-17T20:57:36.241Z,45.83
2022-08-17T21:00:17.082Z,46.30
2022-08-17T21:02:49.496Z,45.99
2022-08-17T21:06:15.335Z,45.96
2022-08-17T21:08:45.882Z,46.10
2022-08-17T21:11:57.080Z,46.14
2022-08-17T21:14:38.015Z,46.63
2022-08-17T21:17:18.718Z,46.75
2022-08-17T21:20:40.160Z,46.92
2022-08-17T21:23:19.452Z,46.93
2022-08-17T21:26:30.211Z,46.60
2022-08-17T21:29:31.447Z,46.67
2022-08-17T21:31:59.681Z,46.91
2022-08-17T21:34:36.021Z,47.07
2022-08-17T21:37:25.254Z,47.24
2022-08-17T21:39:57.503Z,47.31
2022-08-17T21:42:34.604Z,47.17
2022-08-17T21:45:32.423Z,47.36
2022-08-17T21:48:20.602Z,47.59
2022-08-17T21:51:08.883Z,47.27
2022-08-17T21:53:56.577Z,47.60
2022-08-17T21:56:38.064Z,47.43
2022-08-17T21:59:19.315Z,47.90
2022-08-17T22:01:58.467Z,47.90
2022-08-17T22:04:36.837Z,48.09
2022-08-17T22:07:12.452Z,48.04
2022-08-17T22:09:44.871Z,48.25
2022-08-17T22:12:21.314Z,48.38
2022-08-17T22:15:05.753Z,48.25
2022-08-17T22:17:46.600Z,48.01
2022-08-17T22:20:19.538Z,48.04
2022-08-17T22:23:04.728Z,48.57
2022-08-17T22:25:40.543Z,48.46
2022-08-17T22:28:10.368Z,48.77
2022-08-17T22:30:58.540Z,48.31
2022-08-17T22:33:45.318Z,48.65
2022-08-17T22:36:34.329Z,48.52
2022-08-17T22:39:09.861Z,48.67
2022-08-17T22:42:00.871Z,48.90
2022-08-17T22:44:37.596Z,48.66
2022-08-17T22:47:29.327Z,48.54
2022-08-17T22:50:00.641Z,48.97
2022-08-17T22:52:33.965Z,48.53
2022-08-17T22:55:33.323Z,48.83
2022-08-17T22:58:20.649Z,48.78
2022-08-17T23:00:49.187Z,49.27
2022-08-17T23:03:25.855Z,49.09
2022-08-17T23:06:10.349Z,49.04
2022-08-17T23:08:54.561Z,49.01
2022-08-17T23:11:36.629Z,49.55
2022-08-17T23:14:15.944Z,49.22
2022-08-17T23:16:42.835Z,49.14
2022-08-17T23:19:16.776Z,49.12
2022-08-17T23:21:47.377Z,49.60
2022-08-17T23:24:29.325Z,49.51
2022-08-17T23:26:58.037Z,49.74
2022-08-17T23:29:29.132Z,49.56
2022-08-17T23:31:59.672Z,50.17
2022-08-17T23:34:27.945Z,50.07
2022-08-17T23:36:55.474Z,50.24
2022-08-17T23:39:24.732Z,49.93
2022-08-17T23:41:57.866Z,49.86
2022-08-17T23:44:25.495Z,49.96
2022-08-17T23:46:53.755Z,50.20
2022-08-17T23:49:20.695Z,49.90
2022-08-17T23:51:48.761Z,50.04
2022-08-17T23:54:33.551Z,49.81
2022-08-17T23:57:01.996Z,50.19
2022-08-17T23:59:29.226Z,50.11
